Sao Tome, Sao Tome and Principe
Current Conditions -  °F | °C
As of 2:00 AM on Thursday 18 Dec 2014 (Local Time) from FPST Reporting Station
Scattered Clouds Scattered Clouds  
Wind Chill: 73°   Ceiling: Unl
Heat Index: 73°   Visibility: 6mi
Dew Point: 72°   Wind: 5mph
Humidity: 94%   Direction: 280°W
Pressure: 29.85"   Gusts: NA
Location:  0.37°N, 6.73°E
Report Text: FPST 180200Z 28004KT 9999 FEW020CB SCT110 23/22 Q1011 NOSIG
Loading
Personal Weather Stations






























Interactive Weather Map New forecast layout! Learn more

10-Day Weather Forecast

Advertisements
Track Severe Weather on mobile